createdAt,value
2023-05-03T00:00:21.619Z,10.90
2023-05-03T00:02:51.310Z,10.80
2023-05-03T00:05:20.262Z,10.80
2023-05-03T00:07:49.720Z,10.90
2023-05-03T00:10:18.934Z,10.80
2023-05-03T00:12:48.566Z,10.80
2023-05-03T00:15:16.620Z,10.90
2023-05-03T00:17:44.718Z,11.00
2023-05-03T00:20:13.470Z,11.20
2023-05-03T00:22:42.379Z,11.20
2023-05-03T00:25:11.294Z,11.20
2023-05-03T00:27:40.061Z,11.20
2023-05-03T00:30:10.275Z,11.20
2023-05-03T00:32:38.661Z,11.20
2023-05-03T00:35:07.663Z,11.20
2023-05-03T00:37:37.460Z,11.30
2023-05-03T00:40:06.845Z,11.20
2023-05-03T00:42:39.057Z,11.10
2023-05-03T00:45:07.569Z,11.10
2023-05-03T00:47:37.325Z,11.00
2023-05-03T00:50:06.989Z,11.00
2023-05-03T00:52:35.597Z,10.90
2023-05-03T00:55:03.988Z,10.90
2023-05-03T00:57:32.353Z,10.80
2023-05-03T01:00:00.828Z,10.70
2023-05-03T01:02:34.503Z,10.70
2023-05-03T01:05:07.431Z,10.60
2023-05-03T01:07:35.528Z,10.50
2023-05-03T01:10:23.290Z,10.50
2023-05-03T01:13:19.319Z,10.40
2023-05-03T01:16:27.263Z,10.30
2023-05-03T01:19:01.610Z,10.20
2023-05-03T01:21:31.167Z,10.30
2023-05-03T01:24:22.177Z,10.40
2023-05-03T01:26:50.797Z,10.20
2023-05-03T01:29:18.861Z,10.20
2023-05-03T01:32:09.877Z,10.20
2023-05-03T01:34:55.412Z,10.30
2023-05-03T01:37:23.762Z,10.20
2023-05-03T01:39:59.875Z,10.20
2023-05-03T01:42:29.567Z,10.30
2023-05-03T01:44:58.878Z,10.40
2023-05-03T01:47:29.086Z,10.30
2023-05-03T01:49:57.163Z,10.30
2023-05-03T01:52:25.969Z,10.40
2023-05-03T01:54:54.747Z,10.40
2023-05-03T01:57:23.953Z,10.40
2023-05-03T01:59:52.689Z,10.40
2023-05-03T02:02:22.480Z,10.30
2023-05-03T02:04:50.981Z,10.50
2023-05-03T02:07:19.806Z,10.40
2023-05-03T02:09:48.396Z,10.30
2023-05-03T02:12:17.608Z,10.40
2023-05-03T02:14:46.076Z,10.40
2023-05-03T02:17:14.508Z,10.40
2023-05-03T02:19:42.791Z,10.30
2023-05-03T02:22:11.062Z,10.40
2023-05-03T02:24:40.293Z,10.30
2023-05-03T02:27:08.282Z,10.30
2023-05-03T02:29:36.627Z,10.40
2023-05-03T02:32:06.632Z,10.30
2023-05-03T02:34:34.910Z,10.30
2023-05-03T02:37:03.107Z,10.30
2023-05-03T02:39:31.810Z,10.40
2023-05-03T02:42:00.866Z,10.40
2023-05-03T02:44:31.342Z,10.40
2023-05-03T02:47:01.167Z,10.40
2023-05-03T02:49:29.641Z,10.50
2023-05-03T02:51:58.324Z,10.40
2023-05-03T02:54:26.439Z,10.40
2023-05-03T02:56:54.960Z,10.40
2023-05-03T02:59:23.121Z,10.40
2023-05-03T03:01:52.484Z,10.50
2023-05-03T03:04:20.573Z,10.40
2023-05-03T03:06:48.667Z,10.40
2023-05-03T03:09:16.882Z,10.30
2023-05-03T03:11:45.494Z,10.30
2023-05-03T03:14:14.985Z,10.30
2023-05-03T03:16:42.981Z,10.30
2023-05-03T03:19:11.493Z,10.30
2023-05-03T03:21:40.197Z,10.30
2023-05-03T03:24:09.054Z,10.40
2023-05-03T03:26:37.360Z,10.40
2023-05-03T03:29:05.687Z,10.40
2023-05-03T03:31:35.084Z,10.40
2023-05-03T03:34:04.248Z,10.60
2023-05-03T03:36:33.129Z,10.50
2023-05-03T03:39:01.335Z,10.40
2023-05-03T03:41:31.511Z,10.50
2023-05-03T03:44:00.293Z,10.50
2023-05-03T03:46:29.004Z,10.40
2023-05-03T03:49:03.585Z,10.40
2023-05-03T03:51:33.290Z,10.40
2023-05-03T03:54:01.911Z,10.40
2023-05-03T03:56:35.812Z,10.40
2023-05-03T03:59:04.358Z,10.40
2023-05-03T04:01:33.900Z,10.40
2023-05-03T04:04:02.464Z,10.60
2023-05-03T04:06:33.350Z,10.70
2023-05-03T04:09:06.445Z,10.70
2023-05-03T04:11:40.946Z,10.60
2023-05-03T04:14:09.974Z,10.60
2023-05-03T04:16:38.864Z,10.40
2023-05-03T04:19:09.572Z,10.40
2023-05-03T04:21:40.444Z,10.40
2023-05-03T04:24:09.995Z,10.40
2023-05-03T04:26:38.615Z,10.40
2023-05-03T04:29:17.009Z,10.40
2023-05-03T04:31:47.101Z,10.40
2023-05-03T04:34:18.179Z,10.40
2023-05-03T04:36:49.871Z,10.50
2023-05-03T04:39:20.002Z,10.50
2023-05-03T04:41:50.058Z,10.40
2023-05-03T04:44:18.169Z,10.50
2023-05-03T04:46:51.072Z,10.60
2023-05-03T04:49:20.318Z,10.70
2023-05-03T04:51:48.898Z,10.70
2023-05-03T04:54:18.615Z,10.70
2023-05-03T04:56:46.915Z,10.70
2023-05-03T04:59:19.785Z,10.80
2023-05-03T05:01:49.087Z,10.70
2023-05-03T05:04:18.000Z,10.80
2023-05-03T05:06:52.955Z,10.80
2023-05-03T05:09:28.646Z,10.70
2023-05-03T05:12:00.704Z,10.70
2023-05-03T05:14:36.019Z,10.80
2023-05-03T05:17:04.538Z,10.90
2023-05-03T05:19:34.581Z,11.00
2023-05-03T05:22:03.292Z,11.00
2023-05-03T05:24:41.405Z,11.10
2023-05-03T05:27:12.388Z,11.30
2023-05-03T05:29:41.789Z,11.40
2023-05-03T05:32:10.504Z,11.60
2023-05-03T05:34:44.660Z,11.80
2023-05-03T05:37:17.624Z,12.00
2023-05-03T05:39:48.021Z,11.90
2023-05-03T05:42:17.884Z,11.80
2023-05-03T05:44:46.713Z,11.80
2023-05-03T05:47:15.613Z,11.90
2023-05-03T05:49:46.452Z,12.10
2023-05-03T05:52:15.321Z,12.10
2023-05-03T05:54:44.135Z,12.30
2023-05-03T05:57:13.740Z,12.20
2023-05-03T05:59:43.032Z,12.30
2023-05-03T06:02:23.244Z,12.80
2023-05-03T06:04:52.114Z,13.10
2023-05-03T06:07:20.752Z,12.80
2023-05-03T06:09:49.706Z,12.60
2023-05-03T06:12:19.026Z,12.60
2023-05-03T06:15:01.526Z,12.80
2023-05-03T06:17:35.987Z,12.90
2023-05-03T06:20:05.442Z,13.10
2023-05-03T06:22:35.093Z,13.00
2023-05-03T06:25:04.557Z,13.00
2023-05-03T06:27:33.014Z,12.80
2023-05-03T06:30:02.320Z,12.80
2023-05-03T06:32:33.411Z,12.90
2023-05-03T06:35:02.373Z,12.90
2023-05-03T06:37:33.242Z,13.00
2023-05-03T06:40:02.288Z,13.00
2023-05-03T06:42:33.258Z,13.10
2023-05-03T06:45:10.239Z,12.90
2023-05-03T06:47:42.646Z,13.00
2023-05-03T06:50:11.451Z,13.10
2023-05-03T06:52:41.390Z,13.00
2023-05-03T06:55:10.277Z,13.10
2023-05-03T06:57:42.756Z,13.30
2023-05-03T07:00:11.998Z,13.50
2023-05-03T07:02:40.496Z,13.70
2023-05-03T07:05:10.184Z,13.70
2023-05-03T07:07:39.627Z,13.80
2023-05-03T07:10:08.550Z,13.90
2023-05-03T07:12:36.649Z,13.70
2023-05-03T07:15:05.034Z,13.80
2023-05-03T07:17:33.471Z,14.00
2023-05-03T07:20:02.308Z,14.30
2023-05-03T07:22:32.706Z,14.50
2023-05-03T07:25:01.579Z,14.60
2023-05-03T07:27:31.564Z,15.00
2023-05-03T07:30:00.688Z,14.90
2023-05-03T07:32:33.645Z,15.00
2023-05-03T07:35:02.352Z,15.00
2023-05-03T07:37:32.632Z,15.00
2023-05-03T07:40:01.349Z,15.10
2023-05-03T07:42:32.552Z,15.00
2023-05-03T07:45:01.381Z,14.90
2023-05-03T07:47:37.851Z,14.90
2023-05-03T07:50:07.537Z,15.00
2023-05-03T07:52:40.101Z,15.10
2023-05-03T07:55:08.932Z,15.10
2023-05-03T07:57:37.473Z,15.10
2023-05-03T08:00:11.223Z,15.10
2023-05-03T08:02:43.357Z,15.20
2023-05-03T08:05:15.030Z,15.20
2023-05-03T08:07:44.793Z,15.30
2023-05-03T08:10:13.644Z,15.40
2023-05-03T08:12:42.673Z,15.50
2023-05-03T08:15:11.478Z,15.50
2023-05-03T08:17:41.911Z,15.50
2023-05-03T08:20:11.604Z,15.60
2023-05-03T08:22:41.469Z,15.70
2023-05-03T08:25:10.142Z,15.70
2023-05-03T08:27:40.193Z,15.70
2023-05-03T08:30:09.652Z,15.80
2023-05-03T08:32:39.312Z,15.80
2023-05-03T08:35:08.126Z,15.80
2023-05-03T08:37:41.147Z,15.80
2023-05-03T08:40:12.166Z,15.90
2023-05-03T08:42:46.020Z,16.00
2023-05-03T08:45:16.440Z,16.20
2023-05-03T08:47:46.363Z,16.20
2023-05-03T08:50:16.108Z,16.20
2023-05-03T08:52:44.685Z,16.10
2023-05-03T08:55:13.305Z,16.20
2023-05-03T08:57:41.843Z,16.30
2023-05-03T09:00:11.303Z,16.30
2023-05-03T09:02:40.442Z,16.30
2023-05-03T09:05:15.880Z,16.10
2023-05-03T09:08:07.528Z,15.90
2023-05-03T09:10:40.907Z,15.90
2023-05-03T09:13:10.996Z,15.90
2023-05-03T09:15:39.123Z,16.00
2023-05-03T09:18:13.141Z,15.90
2023-05-03T09:20:45.821Z,16.00
2023-05-03T09:23:14.038Z,16.20
2023-05-03T09:25:48.339Z,16.30
2023-05-03T09:28:17.516Z,16.40
2023-05-03T09:30:47.493Z,16.50
2023-05-03T09:33:23.022Z,16.60
2023-05-03T09:35:59.583Z,16.60
2023-05-03T09:38:30.198Z,16.80
2023-05-03T09:40:58.865Z,16.60
2023-05-03T09:43:27.127Z,16.50
2023-05-03T09:46:13.884Z,16.80
2023-05-03T09:48:42.634Z,17.10
2023-05-03T09:51:12.597Z,17.30
2023-05-03T09:53:44.616Z,17.60
2023-05-03T09:56:13.483Z,17.70
2023-05-03T09:58:44.046Z,17.70
2023-05-03T10:01:16.486Z,17.70
2023-05-03T10:03:50.551Z,17.90
2023-05-03T10:06:19.098Z,17.80
2023-05-03T10:09:26.987Z,17.70
2023-05-03T10:11:59.710Z,17.40
2023-05-03T10:14:28.841Z,17.50
2023-05-03T10:17:14.986Z,17.60
2023-05-03T10:19:55.385Z,18.00
2023-05-03T10:22:23.826Z,18.20
2023-05-03T10:25:01.677Z,18.60
2023-05-03T10:27:52.660Z,18.80
2023-05-03T10:30:35.718Z,18.90
2023-05-03T10:33:10.348Z,18.80
2023-05-03T10:35:44.550Z,18.80
2023-05-03T10:38:26.485Z,19.00
2023-05-03T10:40:55.845Z,19.40
2023-05-03T10:43:30.346Z,19.60
2023-05-03T10:46:05.101Z,19.80
2023-05-03T10:48:35.774Z,20.30
2023-05-03T10:51:37.618Z,20.50
2023-05-03T10:54:06.426Z,20.50
2023-05-03T10:56:52.022Z,20.10
2023-05-03T10:59:22.098Z,20.20
2023-05-03T11:01:52.585Z,20.20
2023-05-03T11:04:35.849Z,20.30
2023-05-03T11:07:04.750Z,20.40
2023-05-03T11:09:34.699Z,20.50
2023-05-03T11:12:07.497Z,20.20
2023-05-03T11:14:36.781Z,19.70
2023-05-03T11:17:05.964Z,19.60
2023-05-03T11:19:35.291Z,19.60
2023-05-03T11:22:04.232Z,19.70
2023-05-03T11:24:32.440Z,19.70
2023-05-03T11:27:08.285Z,20.10
2023-05-03T11:29:38.086Z,20.00
2023-05-03T11:32:10.308Z,19.60
2023-05-03T11:34:40.127Z,19.50
2023-05-03T11:37:11.046Z,19.60
2023-05-03T11:39:42.419Z,19.80
2023-05-03T11:42:10.655Z,19.90
2023-05-03T11:44:39.332Z,19.80
2023-05-03T11:47:09.684Z,20.00
2023-05-03T11:49:39.375Z,20.00
2023-05-03T11:52:09.201Z,20.10
2023-05-03T11:54:38.014Z,20.20
2023-05-03T11:57:14.933Z,20.30
2023-05-03T11:59:44.804Z,20.40
2023-05-03T12:02:17.290Z,20.40
2023-05-03T12:04:46.610Z,20.30
2023-05-03T12:07:19.259Z,20.30
2023-05-03T12:10:03.280Z,20.20
2023-05-03T12:12:42.006Z,20.20
2023-05-03T12:15:16.424Z,20.40
2023-05-03T12:17:49.386Z,20.50
2023-05-03T12:22:58.907Z,20.40
2023-05-03T12:25:33.587Z,20.40
2023-05-03T12:28:19.736Z,20.50
2023-05-03T12:30:53.176Z,20.60
2023-05-03T12:33:23.209Z,20.70
2023-05-03T12:35:54.190Z,20.60
2023-05-03T12:38:24.292Z,20.60
2023-05-03T12:40:54.447Z,20.50
2023-05-03T12:43:23.538Z,20.20
2023-05-03T12:46:07.192Z,20.30
2023-05-03T12:48:46.113Z,20.40
2023-05-03T12:53:48.107Z,20.20
2023-05-03T12:56:17.902Z,19.90
2023-05-03T13:02:17.016Z,20.00
2023-05-03T13:06:45.165Z,19.60
2023-05-03T13:11:50.380Z,19.70
2023-05-03T13:14:19.593Z,19.70
2023-05-03T13:16:52.230Z,19.70
2023-05-03T13:19:22.140Z,19.70
2023-05-03T13:21:50.746Z,19.60
2023-05-03T13:24:18.845Z,19.50
2023-05-03T13:26:47.176Z,19.50
2023-05-03T13:29:16.308Z,19.50
2023-05-03T13:31:44.907Z,19.30
2023-05-03T13:34:14.380Z,19.10
2023-05-03T13:36:42.469Z,19.20
2023-05-03T13:39:11.645Z,19.00
2023-05-03T13:41:42.194Z,19.00
2023-05-03T13:44:11.978Z,18.80
2023-05-03T13:46:41.630Z,18.60
2023-05-03T13:49:11.536Z,18.60
2023-05-03T13:51:40.891Z,18.50
2023-05-03T13:54:09.249Z,18.50
2023-05-03T13:56:38.159Z,18.50
2023-05-03T13:59:11.854Z,18.50
2023-05-03T14:01:41.600Z,18.50
2023-05-03T14:04:11.044Z,18.40
2023-05-03T14:06:41.210Z,18.50
2023-05-03T14:09:10.473Z,18.50
2023-05-03T14:11:41.208Z,18.70
2023-05-03T14:14:34.563Z,18.80
2023-05-03T14:17:03.224Z,18.80
2023-05-03T14:19:35.934Z,18.70
2023-05-03T14:22:04.621Z,18.60
2023-05-03T14:24:33.812Z,18.60
2023-05-03T14:27:03.150Z,18.60
2023-05-03T14:29:31.521Z,18.60
2023-05-03T14:32:01.243Z,18.50
2023-05-03T14:34:30.122Z,18.50
2023-05-03T14:36:59.135Z,18.50
2023-05-03T14:39:27.472Z,18.50
2023-05-03T14:41:56.723Z,18.50
2023-05-03T14:44:25.639Z,18.40
2023-05-03T14:46:53.671Z,18.20
2023-05-03T14:49:22.467Z,18.10
2023-05-03T14:51:50.778Z,18.00
2023-05-03T14:54:19.936Z,18.00
2023-05-03T14:56:48.300Z,18.00
2023-05-03T14:59:16.639Z,18.10
2023-05-03T15:01:45.751Z,18.00
2023-05-03T15:04:14.437Z,17.90
2023-05-03T15:06:43.014Z,17.80
2023-05-03T15:09:13.120Z,17.90
2023-05-03T15:11:41.575Z,17.80
2023-05-03T15:14:10.473Z,17.80
2023-05-03T15:16:39.330Z,17.70
2023-05-03T15:19:08.320Z,17.70
2023-05-03T15:21:50.400Z,17.70
2023-05-03T15:24:19.693Z,17.60
2023-05-03T15:26:47.998Z,17.50
2023-05-03T15:29:17.109Z,17.50
2023-05-03T15:31:46.514Z,17.40
2023-05-03T15:34:15.470Z,17.40
2023-05-03T15:36:44.075Z,17.40
2023-05-03T15:39:13.223Z,17.40
2023-05-03T15:41:41.398Z,17.40
2023-05-03T15:44:10.224Z,17.40
2023-05-03T15:46:42.255Z,17.30
2023-05-03T15:49:12.757Z,17.40
2023-05-03T15:51:42.258Z,17.30
2023-05-03T15:54:10.804Z,17.40
2023-05-03T15:56:40.277Z,17.40
2023-05-03T15:59:09.253Z,17.40
2023-05-03T16:01:37.508Z,17.30
2023-05-03T16:04:07.788Z,17.40
2023-05-03T16:06:36.885Z,17.30
2023-05-03T16:09:06.908Z,17.30
2023-05-03T16:11:35.878Z,17.30
2023-05-03T16:14:09.464Z,17.30
2023-05-03T16:16:41.972Z,17.30
2023-05-03T16:19:12.135Z,17.30
2023-05-03T16:21:40.650Z,17.20
2023-05-03T16:24:10.881Z,17.10
2023-05-03T16:26:40.994Z,17.10
2023-05-03T16:29:10.264Z,17.10
2023-05-03T16:31:38.969Z,17.10
2023-05-03T16:34:07.980Z,17.00
2023-05-03T16:36:42.607Z,17.10
2023-05-03T16:39:14.824Z,17.00
2023-05-03T16:41:43.577Z,17.10
2023-05-03T16:44:12.027Z,17.10
2023-05-03T16:46:41.020Z,17.00
2023-05-03T16:49:09.542Z,17.10
2023-05-03T16:51:37.831Z,17.10
2023-05-03T16:54:06.436Z,17.10
2023-05-03T16:56:34.818Z,17.00
2023-05-03T16:59:04.056Z,17.10
2023-05-03T17:01:32.453Z,17.00
2023-05-03T17:04:01.306Z,17.00
2023-05-03T17:06:29.757Z,17.00
2023-05-03T17:08:58.493Z,17.00
2023-05-03T17:11:28.043Z,17.00
2023-05-03T17:13:57.934Z,17.00
2023-05-03T17:16:27.259Z,16.90
2023-05-03T17:18:56.449Z,16.90
2023-05-03T17:21:25.081Z,16.90
2023-05-03T17:23:53.223Z,16.90
2023-05-03T17:26:22.432Z,16.90
2023-05-03T17:28:52.342Z,16.80
2023-05-03T17:31:21.876Z,16.90
2023-05-03T17:33:50.625Z,16.80
2023-05-03T17:36:22.118Z,16.80
2023-05-03T17:38:51.529Z,16.60
2023-05-03T17:41:21.456Z,16.60
2023-05-03T17:43:51.421Z,16.50
2023-05-03T17:46:21.151Z,16.40
2023-05-03T17:48:50.115Z,16.30
2023-05-03T17:51:19.212Z,16.20
2023-05-03T17:53:48.055Z,16.10
2023-05-03T17:56:18.797Z,16.10
2023-05-03T17:58:47.529Z,16.00
2023-05-03T18:01:17.021Z,15.90
2023-05-03T18:03:48.360Z,15.80
2023-05-03T18:06:17.269Z,15.70
2023-05-03T18:08:47.412Z,15.60
2023-05-03T18:11:16.410Z,15.50
2023-05-03T18:13:45.629Z,15.50
2023-05-03T18:16:14.786Z,15.40
2023-05-03T18:18:43.303Z,15.40
2023-05-03T18:21:12.616Z,15.40
2023-05-03T18:23:43.136Z,15.40
2023-05-03T18:26:13.527Z,15.30
2023-05-03T18:28:42.870Z,15.20
2023-05-03T18:31:12.744Z,15.10
2023-05-03T18:33:41.020Z,15.10
2023-05-03T18:36:11.927Z,15.00
2023-05-03T18:38:42.182Z,14.90
2023-05-03T18:41:14.601Z,14.90
2023-05-03T18:43:44.130Z,14.90
2023-05-03T18:46:20.226Z,14.90
2023-05-03T18:48:49.171Z,14.80
2023-05-03T18:51:17.491Z,14.90
2023-05-03T18:53:47.738Z,14.90
2023-05-03T18:56:16.594Z,14.80
2023-05-03T18:58:47.998Z,14.60
2023-05-03T19:01:17.572Z,14.50
2023-05-03T19:03:46.502Z,14.50
2023-05-03T19:06:15.830Z,14.50
2023-05-03T19:08:44.973Z,14.60
2023-05-03T19:11:16.234Z,14.50
2023-05-03T19:13:46.501Z,14.40
2023-05-03T19:16:18.682Z,14.30
2023-05-03T19:18:48.236Z,14.20
2023-05-03T19:21:17.538Z,14.30
2023-05-03T19:23:46.772Z,14.20
2023-05-03T19:26:15.912Z,14.10
2023-05-03T19:28:44.687Z,14.00
2023-05-03T19:31:13.891Z,13.70
2023-05-03T19:33:42.893Z,13.70
2023-05-03T19:36:15.091Z,13.80
2023-05-03T19:38:44.655Z,13.70
2023-05-03T19:41:13.590Z,13.80
2023-05-03T19:43:42.730Z,13.80
2023-05-03T19:46:11.989Z,13.70
2023-05-03T19:48:41.228Z,13.60
2023-05-03T19:51:17.653Z,13.60
2023-05-03T19:53:48.959Z,13.60
2023-05-03T19:56:18.504Z,13.60
2023-05-03T19:58:47.963Z,13.60
2023-05-03T20:01:17.111Z,13.60
2023-05-03T20:03:46.986Z,13.60
2023-05-03T20:06:16.493Z,13.50
2023-05-03T20:08:45.163Z,13.40
2023-05-03T20:11:14.484Z,13.40
2023-05-03T20:13:42.757Z,13.30
2023-05-03T20:16:12.158Z,13.30
2023-05-03T20:18:41.861Z,13.40
2023-05-03T20:21:11.490Z,13.30
2023-05-03T20:23:40.332Z,13.20
2023-05-03T20:26:08.785Z,13.20
2023-05-03T20:28:37.528Z,13.20
2023-05-03T20:31:05.911Z,13.20
2023-05-03T20:33:34.816Z,13.20
2023-05-03T20:36:03.480Z,13.20
2023-05-03T20:38:31.787Z,13.20
2023-05-03T20:41:01.623Z,13.10
2023-05-03T20:43:30.999Z,12.90
2023-05-03T20:45:59.605Z,12.80
2023-05-03T20:48:29.209Z,12.80
2023-05-03T20:51:00.896Z,12.90
2023-05-03T20:53:30.445Z,12.80
2023-05-03T20:56:00.970Z,12.70
2023-05-03T20:58:31.035Z,12.70
2023-05-03T21:01:01.587Z,12.80
2023-05-03T21:03:32.117Z,12.80
2023-05-03T21:06:01.579Z,12.70
2023-05-03T21:08:31.420Z,12.70
2023-05-03T21:11:00.608Z,12.60
2023-05-03T21:13:29.502Z,12.60
2023-05-03T21:15:58.556Z,12.60
2023-05-03T21:18:28.292Z,12.60
2023-05-03T21:20:56.903Z,12.50
2023-05-03T21:23:25.899Z,12.40
2023-05-03T21:25:56.430Z,12.30
2023-05-03T21:28:24.926Z,12.10
2023-05-03T21:30:55.366Z,12.20
2023-05-03T21:33:24.331Z,12.30
2023-05-03T21:35:53.503Z,12.30
2023-05-03T21:38:22.244Z,12.30
2023-05-03T21:40:50.484Z,12.20
2023-05-03T21:43:18.709Z,12.20
2023-05-03T21:45:49.008Z,12.20
2023-05-03T21:48:17.733Z,12.30
2023-05-03T21:50:46.736Z,12.20
2023-05-03T21:53:15.991Z,12.10
2023-05-03T21:55:48.189Z,12.10
2023-05-03T21:58:16.892Z,12.20
2023-05-03T22:00:45.590Z,12.20
2023-05-03T22:03:15.793Z,12.20
2023-05-03T22:05:49.092Z,12.10
2023-05-03T22:08:18.708Z,11.90
2023-05-03T22:10:47.202Z,11.90
2023-05-03T22:13:16.367Z,11.90
2023-05-03T22:15:45.824Z,12.00
2023-05-03T22:18:14.059Z,12.10
2023-05-03T22:20:42.372Z,11.90
2023-05-03T22:23:10.971Z,11.80
2023-05-03T22:25:39.843Z,11.70
2023-05-03T22:28:08.686Z,11.70
2023-05-03T22:30:37.682Z,11.80
2023-05-03T22:33:05.746Z,11.80
2023-05-03T22:35:34.794Z,11.70
2023-05-03T22:38:04.068Z,11.80
2023-05-03T22:40:33.264Z,11.80
2023-05-03T22:43:01.917Z,11.80
2023-05-03T22:45:31.420Z,11.90
2023-05-03T22:48:00.829Z,11.90
2023-05-03T22:50:29.458Z,11.90
2023-05-03T22:52:57.516Z,11.80
2023-05-03T22:55:26.446Z,11.70
2023-05-03T22:57:55.502Z,11.70
2023-05-03T23:00:23.915Z,11.70
2023-05-03T23:02:53.193Z,11.60
2023-05-03T23:05:21.473Z,11.60
2023-05-03T23:07:50.485Z,11.60
2023-05-03T23:10:19.807Z,11.50
2023-05-03T23:12:49.084Z,11.40
2023-05-03T23:15:17.772Z,11.30
2023-05-03T23:17:46.836Z,11.40
2023-05-03T23:20:15.821Z,11.40
2023-05-03T23:22:43.935Z,11.40
2023-05-03T23:25:12.231Z,11.20
2023-05-03T23:27:40.786Z,11.10
2023-05-03T23:30:10.493Z,11.10
2023-05-03T23:32:40.007Z,11.20
2023-05-03T23:35:08.955Z,11.20
2023-05-03T23:37:37.980Z,11.20
2023-05-03T23:40:07.429Z,11.20
2023-05-03T23:42:36.742Z,11.20
2023-05-03T23:45:06.239Z,11.20
2023-05-03T23:47:34.693Z,11.30
2023-05-03T23:50:04.095Z,11.20
2023-05-03T23:52:33.031Z,11.20
2023-05-03T23:55:02.578Z,11.30
2023-05-03T23:57:32.923Z,11.30
